Time;durP1;ratioP1;P1;durP2;ratioP2;P2;SDS_P1;SDS_P2;PMS_P1;PMS_P2;Temp;Humidity;BMP_temperature;BMP_pressure;BME280_temperature;BME280_humidity;BME280_pressure;Samples;Min_cycle;Max_cycle;Signal;HPM_P1;HPM_P2
2023/04/20 00:03:20;;;;;;;3.88;2.33;;;;;;;5.01;72.69;99904.69;12181066;19;20015;-81
2023/04/20 00:07:23;;;;;;;4.82;2.53;;;;;;;5.00;73.11;99897.56;12202635;19;20018;-82
2023/04/20 00:11:26;;;;;;;;;;;;;;;4.93;74.79;99891.25;12206994;19;20011;-83
2023/04/20 00:15:28;;;;;;;8.93;2.63;;;;;;;4.90;72.94;99889.78;12183133;19;19923;-82
2023/04/20 00:19:32;;;;;;;4.05;2.40;;;;;;;4.87;74.18;99878.44;12206481;19;20480;-82
2023/04/20 00:23:33;;;;;;;5.30;2.45;;;;;;;4.81;75.39;99858.28;12183439;19;20696;-82
2023/04/20 00:27:35;;;;;;;4.88;2.20;;;;;;;4.73;75.59;99863.94;12200130;19;20074;-82
2023/04/20 00:31:37;;;;;;;10.77;2.42;;;;;;;4.73;74.03;99853.03;12202060;19;20006;-83
2023/04/20 00:35:39;;;;;;;9.23;2.70;;;;;;;4.69;74.74;99846.31;12180342;19;20014;-82
2023/04/20 00:39:41;;;;;;;9.90;2.95;;;;;;;4.67;73.77;99848.41;12201082;19;20006;-83
2023/04/20 00:43:51;;;;;;;5.63;3.20;;;;;;;4.70;73.13;99837.94;12202999;19;20006;-82
2023/04/20 00:47:52;;;;;;;4.50;2.65;;;;;;;4.72;72.78;99837.72;12182045;19;20011;-82
2023/04/20 00:51:57;;;;;;;5.90;2.92;;;;;;;4.69;73.00;99829.94;12203271;19;20007;-82
2023/04/20 00:55:59;;;;;;;5.50;3.17;;;;;;;4.64;73.85;99821.53;12201375;19;20006;-82
2023/04/20 01:00:00;;;;;;;6.15;3.05;;;;;;;4.60;73.81;99821.13;12183056;19;20013;-81
2023/04/20 01:04:08;;;;;;;5.82;2.33;;;;;;;4.58;74.41;99817.78;12201096;19;20118;-83
2023/04/20 01:08:10;;;;;;;6.07;2.88;;;;;;;4.51;74.48;99806.03;12203247;19;20027;-83
2023/04/20 01:12:12;;;;;;;5.22;2.17;;;;;;;4.49;73.63;99797.19;12179794;19;21782;-82
2023/04/20 01:16:13;;;;;;;8.13;2.55;;;;;;;4.53;74.44;99798.47;12202682;19;20018;-83
2023/04/20 01:20:19;;;;;;;7.05;2.63;;;;;;;4.53;75.30;99798.47;12199061;19;20023;-83
2023/04/20 01:24:20;;;;;;;6.05;3.35;;;;;;;4.51;74.60;99793.22;12178843;19;20037;-83
2023/04/20 01:28:23;;;;;;;6.07;3.03;;;;;;;4.49;75.85;99776.22;12204131;19;20014;-83
2023/04/20 01:32:25;;;;;;;5.97;2.90;;;;;;;4.51;76.53;99782.31;12200273;19;20025;-83
2023/04/20 01:36:45;;;;;;;5.60;2.75;;;;;;;4.56;76.66;99776.22;12175579;19;20010;-82
2023/04/20 01:40:47;;;;;;;5.22;2.90;;;;;;;4.57;76.55;99777.88;12200017;19;20014;-83
2023/04/20 01:44:49;;;;;;;6.90;2.67;;;;;;;4.62;75.99;99769.06;12177895;19;20017;-82
2023/04/20 01:48:51;;;;;;;6.40;3.70;;;;;;;4.73;75.21;99768.41;12194633;19;20646;-81
2023/04/20 01:52:52;;;;;;;6.63;3.10;;;;;;;4.86;75.10;99760.22;12195505;19;20010;-82
2023/04/20 01:56:55;;;;;;;7.47;3.10;;;;;;;5.00;74.65;99756.41;12176182;19;21402;-83
2023/04/20 02:00:56;;;;;;;7.47;3.50;;;;;;;5.13;74.54;99744.56;12198449;19;20018;-82
2023/04/20 02:04:58;;;;;;;6.95;3.00;;;;;;;5.20;74.15;99755.47;12195795;19;20010;-82
2023/04/20 02:09:00;;;;;;;5.70;2.78;;;;;;;5.25;74.13;99753.75;12177695;19;20014;-82
2023/04/20 02:13:02;;;;;;;9.90;3.20;;;;;;;5.28;74.94;99748.94;12196663;19;20014;-82
2023/04/20 02:17:06;;;;;;;;;;;;;;;5.19;76.03;99748.34;12202182;19;20031;-82
2023/04/20 02:21:08;;;;;;;4.13;2.57;;;;;;;5.16;75.94;99749.59;12177273;19;19911;-82
2023/04/20 02:25:09;;;;;;;5.13;2.80;;;;;;;5.10;77.83;99746.91;12197841;19;20014;-82
2023/04/20 02:29:11;;;;;;;9.02;3.33;;;;;;;4.97;79.08;99751.34;12198329;19;20007;-82
2023/04/20 02:33:13;;;;;;;8.73;3.47;;;;;;;4.85;79.93;99746.75;12172869;19;20342;-81
2023/04/20 02:37:14;;;;;;;5.63;3.20;;;;;;;4.71;79.67;99738.63;12200029;19;20018;-83
2023/04/20 02:41:16;;;;;;;6.32;3.08;;;;;;;4.67;79.41;99731.91;12190411;19;20362;-82
2023/04/20 02:45:19;;;;;;;6.22;3.30;;;;;;;4.63;79.49;99724.34;12175983;19;20690;-82
2023/04/20 02:49:21;;;;;;;5.90;2.50;;;;;;;4.57;79.39;99726.88;12236305;19;20009;-81
2023/04/20 02:53:23;;;;;;;10.27;3.58;;;;;;;4.57;79.49;99726.88;12254981;19;20014;-82
2023/04/20 02:57:43;;;;;;;5.32;2.97;;;;;;;4.49;80.99;99729.84;12180924;19;20027;-84
2023/04/20 03:01:45;;;;;;;5.03;3.05;;;;;;;4.53;79.45;99720.16;12199550;19;20414;-83
2023/04/20 03:05:49;;;;;;;4.72;2.45;;;;;;;4.52;79.86;99709.47;12176036;19;20082;-83
2023/04/20 03:09:51;;;;;;;5.20;2.83;;;;;;;4.49;80.58;99704.44;12216046;19;20010;-81
2023/04/20 03:14:00;;;;;;;7.75;3.45;;;;;;;4.49;81.43;99715.34;12199142;19;20016;-83
2023/04/20 03:18:02;;;;;;;8.87;3.13;;;;;;;4.47;82.00;99706.56;12176425;19;20537;-83
2023/04/20 03:22:05;;;;;;;5.63;3.05;;;;;;;4.39;82.54;99710.31;12198251;19;20018;-82
2023/04/20 03:26:08;;;;;;;7.78;3.75;;;;;;;4.33;82.48;99698.38;12196428;19;20005;-81
2023/04/20 03:30:19;;;;;;;7.13;3.22;;;;;;;4.30;81.93;99695.22;12176635;19;20019;-82
2023/04/20 03:34:26;;;;;;;6.60;3.25;;;;;;;4.34;82.17;99704.66;12193383;19;20428;-82
2023/04/20 03:38:29;;;;;;;8.32;3.83;;;;;;;4.36;81.90;99694.38;12182903;19;20010;-81
2023/04/20 03:42:31;;;;;;;5.55;3.05;;;;;;;4.43;81.46;99703.41;12244884;19;20002;-82
2023/04/20 03:46:33;;;;;;;8.85;3.40;;;;;;;4.49;80.97;99696.25;12197179;19;20011;-82
2023/04/20 03:50:34;;;;;;;6.72;3.63;;;;;;;4.51;81.84;99697.72;12172993;19;20015;-82
2023/04/20 03:54:38;;;;;;;5.28;3.10;;;;;;;4.51;82.06;99700.44;12195953;19;20003;-82
2023/04/20 03:58:40;;;;;;;10.73;3.22;;;;;;;4.54;81.63;99691.81;12194761;19;20400;-82
2023/04/20 04:02:52;;;;;;;8.63;3.63;;;;;;;4.57;82.14;99696.03;12171854;19;20687;-81
2023/04/20 04:06:58;;;;;;;7.20;3.70;;;;;;;4.55;82.81;99682.59;12198121;19;20110;-83
2023/04/20 04:11:02;;;;;;;7.60;3.27;;;;;;;4.54;83.44;99685.53;12203595;19;20383;-81
2023/04/20 04:15:05;;;;;;;8.25;3.50;;;;;;;4.52;84.95;99674.84;12252923;19;20042;-80
2023/04/20 04:19:14;;;;;;;8.93;3.95;;;;;;;4.49;84.89;99680.72;12271847;19;20027;-80
2023/04/20 04:23:17;;;;;;;9.98;3.78;;;;;;;4.44;88.14;99676.97;12225090;19;20057;-82
2023/04/20 04:27:22;;;;;;;8.52;4.00;;;;;;;4.48;87.06;99680.94;12182044;19;20011;-81
2023/04/20 04:31:31;;;;;;;9.20;3.63;;;;;;;4.47;87.57;99682.81;12200194;19;20090;-81
2023/04/20 04:35:42;;;;;;;6.72;3.65;;;;;;;4.49;88.33;99690.78;12181938;19;20044;-82
2023/04/20 04:39:45;;;;;;;7.70;3.88;;;;;;;4.51;87.52;99694.16;12204217;19;20007;-82
2023/04/20 04:43:53;;;;;;;7.53;3.85;;;;;;;4.53;88.98;99698.34;12201642;19;20026;-82
2023/04/20 04:48:02;;;;;;;7.68;3.72;;;;;;;4.55;88.44;99703.56;12179537;19;20014;-82
2023/04/20 04:52:07;;;;;;;9.88;4.15;;;;;;;4.60;88.05;99694.75;12202528;19;20011;-82
2023/04/20 04:56:12;;;;;;;8.43;3.67;;;;;;;4.63;88.15;99689.69;12202636;19;20015;-82
2023/04/20 05:00:14;;;;;;;6.95;3.53;;;;;;;4.64;91.35;99680.47;12182028;19;20086;-81
2023/04/20 05:04:16;;;;;;;7.85;3.63;;;;;;;4.74;90.14;99690.94;12219890;19;20014;-83
2023/04/20 05:08:20;;;;;;;8.27;3.90;;;;;;;4.87;89.93;99693.63;12206820;19;20010;-83
2023/04/20 05:12:24;;;;;;;10.98;4.32;;;;;;;4.93;89.51;99687.28;12180543;19;20029;-81
2023/04/20 05:16:26;;;;;;;7.72;4.28;;;;;;;5.03;89.40;99690.41;12203751;19;20039;-82
2023/04/20 05:20:28;;;;;;;6.05;3.25;;;;;;;5.11;90.03;99693.94;12182722;19;20025;-82
2023/04/20 05:24:29;;;;;;;11.35;4.47;;;;;;;5.20;89.54;99689.91;12203654;19;20095;-82
2023/04/20 05:28:34;;;;;;;7.47;3.90;;;;;;;5.22;91.35;99693.25;12199084;19;20007;-81
2023/04/20 05:32:36;;;;;;;10.60;4.45;;;;;;;5.27;91.78;99688.00;12179762;19;20720;-82
2023/04/20 05:36:38;;;;;;;8.30;4.45;;;;;;;5.28;92.77;99686.94;12204547;19;20010;-81
2023/04/20 05:40:40;;;;;;;6.88;3.80;;;;;;;5.30;93.06;99695.75;12201304;19;20041;-82
2023/04/20 05:44:42;;;;;;;9.35;4.00;;;;;;;5.42;91.89;99693.16;12178197;19;20015;-82
2023/04/20 05:48:44;;;;;;;6.97;3.78;;;;;;;5.52;92.46;99687.22;12197123;19;20475;-82
2023/04/20 05:52:46;;;;;;;11.55;4.18;;;;;;;5.51;93.57;99689.13;12201213;19;20654;-82
2023/04/20 05:56:48;;;;;;;7.72;3.97;;;;;;;5.51;93.04;99691.00;12180903;19;20023;-82
2023/04/20 06:00:50;;;;;;;8.52;4.68;;;;;;;5.65;93.18;99687.97;12198916;19;20006;-80
2023/04/20 06:04:52;;;;;;;9.50;4.25;;;;;;;5.71;94.60;99687.09;12201485;19;20066;-82
2023/04/20 06:08:54;;;;;;;6.53;4.00;;;;;;;5.85;93.90;99689.72;12178688;19;20031;-82
2023/04/20 06:12:57;;;;;;;7.65;4.30;;;;;;;5.90;94.06;99685.25;12197379;19;20005;-81
2023/04/20 06:16:58;;;;;;;11.67;4.97;;;;;;;5.94;95.98;99686.50;12203860;19;20010;-83
2023/04/20 06:21:00;;;;;;;8.65;4.45;;;;;;;6.07;94.11;99693.78;12180360;19;20002;-82
2023/04/20 06:25:03;;;;;;;8.17;4.47;;;;;;;6.21;93.48;99683.53;12201029;19;20006;-82
2023/04/20 06:29:05;;;;;;;8.15;4.20;;;;;;;6.22;93.13;99684.41;12202533;19;20276;-83
2023/04/20 06:33:07;;;;;;;11.07;4.50;;;;;;;6.15;94.26;99673.50;12180265;19;20106;-82
2023/04/20 06:37:13;;;;;;;9.73;4.88;;;;;;;6.19;94.81;99674.75;12208347;19;20485;-82
2023/04/20 06:41:15;;;;;;;6.28;3.47;;;;;;;6.30;94.11;99673.16;12202295;19;20017;-83
2023/04/20 06:45:17;;;;;;;7.13;4.33;;;;;;;6.39;94.01;99680.00;12181876;19;20017;-82
2023/04/20 06:49:19;;;;;;;9.33;4.63;;;;;;;6.57;94.34;99681.94;12201871;19;20015;-82
2023/04/20 06:53:21;;;;;;;8.48;4.40;;;;;;;6.74;93.17;99674.78;12202654;19;20349;-82
2023/04/20 06:57:22;;;;;;;7.45;4.22;;;;;;;6.89;93.03;99682.63;12182790;19;20003;-81
2023/04/20 07:01:25;;;;;;;8.73;4.57;;;;;;;7.08;91.47;99675.25;12202069;19;20023;-81
2023/04/20 07:05:27;;;;;;;6.60;3.60;;;;;;;7.23;90.15;99672.09;12194184;19;20021;-81
2023/04/20 07:09:29;;;;;;;12.25;3.92;;;;;;;7.46;89.55;99682.31;12237817;19;20033;-80
2023/04/20 07:13:31;;;;;;;8.82;4.03;;;;;;;7.59;87.68;99673.06;12260474;19;20019;-82
2023/04/20 07:17:34;;;;;;;7.07;3.75;;;;;;;7.80;85.63;99677.19;12227896;19;20006;-81
2023/04/20 07:21:36;;;;;;;7.55;3.70;;;;;;;7.90;84.51;99672.78;12238455;19;20081;-84
2023/04/20 07:25:38;;;;;;;9.27;3.30;;;;;;;8.04;82.10;99669.81;12202794;19;20693;-82
2023/04/20 07:29:43;;;;;;;9.60;3.85;;;;;;;8.17;81.80;99678.66;12208358;19;20011;-80
2023/04/20 07:33:45;;;;;;;7.93;3.77;;;;;;;8.53;79.36;99671.28;12252552;19;19998;-81
2023/04/20 07:37:46;;;;;;;7.10;3.70;;;;;;;8.99;76.44;99664.06;12205319;19;20007;-83
2023/04/20 07:41:48;;;;;;;8.70;3.67;;;;;;;8.96;75.46;99658.22;12184193;19;20476;-81
2023/04/20 07:45:50;;;;;;;7.93;4.22;;;;;;;8.87;76.47;99671.50;12204388;19;20006;-81
2023/04/20 07:49:52;;;;;;;8.75;4.55;;;;;;;9.03;76.19;99670.72;12213870;19;20014;-82
2023/04/20 07:53:54;;;;;;;6.65;4.05;;;;;;;9.32;73.59;99676.25;12192869;19;20015;-81
2023/04/20 07:57:56;;;;;;;8.23;4.88;;;;;;;9.84;72.82;99670.59;12211852;19;20042;-82
2023/04/20 08:02:00;;;;;;;8.70;4.32;;;;;;;10.27;68.74;99660.91;12207335;19;20051;-81
2023/04/20 08:06:02;;;;;;;6.32;4.38;;;;;;;10.09;67.84;99666.66;12186414;19;20011;-81
2023/04/20 08:10:06;;;;;;;8.93;4.90;;;;;;;10.19;68.39;99659.38;12208171;19;20124;-82
2023/04/20 08:14:08;;;;;;;10.95;4.97;;;;;;;10.34;68.97;99658.81;12205903;19;20032;-82
2023/04/20 08:18:10;;;;;;;10.07;4.68;;;;;;;10.68;68.26;99656.84;12181281;19;20007;-79
2023/04/20 08:22:12;;;;;;;7.95;4.68;;;;;;;11.24;66.74;99650.34;12208717;19;20018;-80
2023/04/20 08:26:15;;;;;;;6.70;4.07;;;;;;;11.26;62.49;99650.94;12208416;19;20563;-80
2023/04/20 08:30:17;;;;;;;9.18;4.82;;;;;;;11.23;64.68;99649.53;12188509;19;20014;-82
2023/04/20 08:34:19;;;;;;;6.60;4.25;;;;;;;11.34;64.52;99643.03;12204515;19;20019;-82
2023/04/20 08:38:21;;;;;;;7.00;4.63;;;;;;;11.72;63.09;99635.69;12207834;19;20348;-82
2023/04/20 08:42:34;;;;;;;6.72;4.38;;;;;;;12.67;58.27;99643.34;12185035;19;20034;-80
2023/04/20 08:46:37;;;;;;;8.05;4.53;;;;;;;13.00;56.70;99640.19;12207648;19;20007;-82
2023/04/20 08:50:40;;;;;;;9.07;4.88;;;;;;;13.06;55.53;99638.28;12189421;19;20011;-80
2023/04/20 08:54:41;;;;;;;;;;;;;;;13.00;56.83;99633.84;12211364;19;20019;-81
2023/04/20 08:58:57;;;;;;;8.20;4.35;;;;;;;13.14;56.09;99634.97;12207566;19;19915;-80
2023/04/20 09:03:00;;;;;;;5.93;3.77;;;;;;;13.12;55.64;99628.91;12180534;19;20058;-81
2023/04/20 09:07:02;;;;;;;8.32;4.57;;;;;;;13.60;52.93;99629.63;12207018;19;20010;-81
2023/04/20 09:11:05;;;;;;;6.43;4.40;;;;;;;14.26;52.15;99625.22;12204279;19;20440;-80
2023/04/20 09:15:23;;;;;;;8.82;5.07;;;;;;;14.54;49.78;99607.97;12186673;19;20399;-80
2023/04/20 09:19:26;;;;;;;7.43;5.10;;;;;;;15.09;49.78;99607.25;12194902;19;20031;-80
2023/04/20 09:23:28;;;;;;;7.72;4.32;;;;;;;16.07;47.57;99611.09;12180295;19;20844;-81
2023/04/20 09:27:30;;;;;;;7.93;4.70;;;;;;;16.26;45.40;99606.44;12201858;19;20042;-80
2023/04/20 09:31:35;;;;;;;6.97;4.68;;;;;;;15.69;44.05;99594.16;12203823;19;20010;-80
2023/04/20 09:35:39;;;;;;;6.50;4.88;;;;;;;15.24;45.05;99598.84;12179962;19;20017;-80
2023/04/20 09:39:42;;;;;;;9.32;5.28;;;;;;;15.07;46.19;99584.50;12208157;19;20613;-81
2023/04/20 09:43:44;;;;;;;7.50;5.15;;;;;;;15.05;46.71;99582.03;12200246;19;20030;-80
2023/04/20 09:47:48;;;;;;;7.00;4.35;;;;;;;15.24;46.93;99584.97;12180854;19;20353;-80
2023/04/20 09:51:56;;;;;;;6.88;4.32;;;;;;;15.16;46.01;99577.25;12208796;19;20099;-80
2023/04/20 09:56:02;;;;;;;8.68;5.15;;;;;;;15.17;46.41;99582.53;12207599;19;20010;-80
2023/04/20 10:00:09;;;;;;;7.93;4.60;;;;;;;15.53;45.11;99584.22;12188329;19;20007;-80
2023/04/20 10:04:13;;;;;;;8.45;4.00;;;;;;;15.73;43.45;99573.00;12268623;19;19995;-80
2023/04/20 10:08:15;;;;;;;7.63;4.65;;;;;;;15.58;43.50;99582.25;12253033;19;20477;-82
2023/04/20 10:12:20;;;;;;;8.65;4.53;;;;;;;15.70;42.00;99568.03;12185405;19;20101;-80
2023/04/20 10:16:22;;;;;;;12.00;4.68;;;;;;;15.57;41.95;99560.31;12200472;19;20046;-81
2023/04/20 10:20:26;;;;;;;9.63;4.53;;;;;;;15.29;43.63;99565.53;12198021;19;20692;-81
2023/04/20 10:24:29;;;;;;;7.88;4.97;;;;;;;15.12;43.19;99551.19;12179152;19;20010;-81
2023/04/20 10:28:39;;;;;;;5.88;3.65;;;;;;;15.27;43.37;99551.91;12198554;19;20006;-80
2023/04/20 10:32:41;;;;;;;7.05;3.97;;;;;;;15.19;42.26;99535.03;12174973;19;20010;-81
2023/04/20 10:36:43;;;;;;;9.13;4.40;;;;;;;15.18;42.99;99533.38;12202371;19;20345;-81
2023/04/20 10:40:45;;;;;;;7.15;4.22;;;;;;;14.77;43.54;99528.06;12201876;19;20011;-82
2023/04/20 10:44:50;;;;;;;6.97;3.70;;;;;;;14.03;45.17;99524.91;12181152;19;20031;-81
2023/04/20 10:49:02;;;;;;;6.38;4.15;;;;;;;13.57;45.46;99527.72;12202275;19;20002;-81
2023/04/20 10:53:04;;;;;;;8.10;4.25;;;;;;;13.50;46.45;99516.09;12200020;19;20006;-81
2023/04/20 10:57:06;;;;;;;8.00;4.83;;;;;;;13.74;46.52;99521.94;12180122;19;20018;-80
2023/04/20 11:01:08;;;;;;;8.07;4.20;;;;;;;14.56;45.32;99517.03;12197100;19;20003;-82
2023/04/20 11:05:11;;;;;;;9.55;4.68;;;;;;;15.37;42.74;99509.38;12205391;19;20003;-82
2023/04/20 11:09:25;;;;;;;6.43;3.90;;;;;;;16.15;42.58;99491.75;12190201;19;20357;-81
2023/04/20 11:13:28;;;;;;;5.90;4.03;;;;;;;16.36;39.57;99485.97;12200725;19;20024;-81
2023/04/20 11:17:34;;;;;;;6.18;3.55;;;;;;;16.44;39.45;99476.97;12212799;19;20023;-81
2023/04/20 11:21:38;;;;;;;6.30;3.22;;;;;;;16.36;39.99;99474.84;12186569;19;20010;-81
2023/04/20 11:25:49;;;;;;;6.82;3.40;;;;;;;16.05;39.37;99488.25;12215423;19;20011;-80
2023/04/20 11:30:03;;;;;;;5.85;3.40;;;;;;;16.51;40.15;99473.81;12201711;19;20020;-81
2023/04/20 11:34:07;;;;;;;4.93;2.70;;;;;;;16.43;38.37;99480.06;12220529;19;20006;-81
2023/04/20 11:38:09;;;;;;;5.63;3.50;;;;;;;15.79;39.15;99465.44;12220579;19;20022;-81
2023/04/20 11:42:10;;;;;;;6.00;3.00;;;;;;;16.18;39.02;99463.38;12194869;19;20590;-81
2023/04/20 11:46:14;;;;;;;7.43;2.97;;;;;;;16.89;37.43;99457.19;12221747;19;20512;-83
2023/04/20 11:50:20;;;;;;;5.15;3.50;;;;;;;17.15;36.31;99455.69;12221415;19;20043;-81
2023/04/20 11:54:22;;;;;;;6.35;3.60;;;;;;;16.62;37.02;99456.69;12196138;19;20031;-82
2023/04/20 11:58:25;;;;;;;6.53;3.50;;;;;;;16.48;37.21;99460.50;12218664;19;20094;-82
2023/04/20 12:02:26;;;;;;;6.33;3.67;;;;;;;16.44;37.53;99445.53;12217668;19;20503;-80
2023/04/20 12:06:30;;;;;;;6.53;3.63;;;;;;;17.02;37.70;99457.28;12191270;19;20035;-81
2023/04/20 12:10:32;;;;;;;11.65;4.13;;;;;;;17.07;36.51;99457.22;12252111;19;19999;-79
2023/04/20 12:14:35;;;;;;;5.45;3.40;;;;;;;16.75;36.53;99457.94;12251332;19;20086;-81
2023/04/20 12:18:38;;;;;;;7.70;3.28;;;;;;;16.17;37.46;99453.34;12225713;19;20042;-83
2023/04/20 12:22:39;;;;;;;5.20;3.17;;;;;;;15.94;37.23;99441.13;12214401;19;20003;-81
2023/04/20 12:26:41;;;;;;;5.75;3.10;;;;;;;16.32;37.23;99430.09;12197895;19;20050;-81
2023/04/20 12:30:43;;;;;;;5.27;3.03;;;;;;;16.66;36.36;99428.28;12219659;19;20017;-81
2023/04/20 12:34:45;;;;;;;8.33;3.23;;;;;;;17.91;35.75;99428.53;12213801;19;20020;-80
2023/04/20 12:38:50;;;;;;;4.43;2.55;;;;;;;19.29;33.79;99421.91;12181851;19;20052;-80
2023/04/20 12:42:52;;;;;;;4.72;2.97;;;;;;;19.08;33.33;99425.19;12205740;19;20002;-82
2023/04/20 12:46:53;;;;;;;6.07;3.37;;;;;;;19.06;33.77;99427.47;12212298;19;20078;-82
2023/04/20 12:50:57;;;;;;;9.43;3.78;;;;;;;18.42;33.86;99432.25;12191848;19;20014;-80
2023/04/20 12:55:02;;;;;;;5.32;3.22;;;;;;;17.99;35.12;99432.53;12209552;19;20011;-84
2023/04/20 12:59:05;;;;;;;7.55;3.63;;;;;;;17.27;34.83;99444.09;12218172;19;20011;-83
2023/04/20 13:03:09;;;;;;;4.47;3.13;;;;;;;16.56;35.26;99457.88;12185771;19;20026;-82
2023/04/20 13:07:11;;;;;;;4.37;2.60;;;;;;;15.69;35.57;99455.25;12207719;19;20011;-82
2023/04/20 13:11:14;;;;;;;5.65;2.72;;;;;;;14.91;36.77;99453.38;12217270;19;20070;-82
2023/04/20 13:15:18;;;;;;;4.22;2.53;;;;;;;14.93;36.68;99453.88;12193801;19;20042;-83
2023/04/20 13:19:39;;;;;;;5.25;2.45;;;;;;;15.02;37.21;99453.00;12215325;19;20078;-81
2023/04/20 13:23:40;;;;;;;4.80;2.58;;;;;;;15.20;37.05;99451.50;12179289;19;20010;-82
2023/04/20 13:27:42;;;;;;;5.10;3.00;;;;;;;15.25;37.80;99467.25;12206032;19;20017;-82
2023/04/20 13:31:46;;;;;;;5.22;3.17;;;;;;;15.10;38.78;99459.88;12202766;19;20037;-82
2023/04/20 13:35:48;;;;;;;4.38;2.88;;;;;;;14.78;39.22;99469.53;12182297;19;20013;-81
2023/04/20 13:39:50;;;;;;;6.07;3.20;;;;;;;14.59;40.66;99462.97;12203803;19;20046;-82
2023/04/20 13:43:51;;;;;;;6.40;3.17;;;;;;;14.63;41.13;99460.44;12199334;19;20011;-81
2023/04/20 13:47:54;;;;;;;5.10;2.72;;;;;;;14.67;41.95;99472.66;12181177;19;20427;-82
2023/04/20 13:51:55;;;;;;;5.80;3.05;;;;;;;14.48;43.00;99473.22;12201144;19;20756;-81
2023/04/20 13:55:57;;;;;;;6.43;3.42;;;;;;;14.27;43.70;99466.94;12198305;19;20360;-82
2023/04/20 14:00:01;;;;;;;5.38;3.20;;;;;;;14.08;45.60;99465.91;12181187;19;20006;-81
2023/04/20 14:04:07;;;;;;;5.38;3.45;;;;;;;13.72;43.35;99465.97;12202889;19;20010;-80
2023/04/20 14:08:09;;;;;;;6.20;3.40;;;;;;;13.57;44.35;99454.94;12202932;19;20185;-81
2023/04/20 14:12:11;;;;;;;6.05;3.42;;;;;;;13.39;44.77;99448.84;12179862;19;20028;-82
2023/04/20 14:16:13;;;;;;;5.05;3.47;;;;;;;13.49;45.08;99452.72;12201434;19;20007;-81
2023/04/20 14:20:15;;;;;;;6.53;3.73;;;;;;;13.38;45.67;99447.16;12202525;19;20002;-80
2023/04/20 14:24:17;;;;;;;6.22;3.65;;;;;;;13.39;46.63;99448.03;12173580;19;20540;-81
2023/04/20 14:28:19;;;;;;;5.10;3.28;;;;;;;13.13;47.53;99447.97;12203628;19;20021;-81
2023/04/20 14:32:21;;;;;;;5.10;3.50;;;;;;;12.93;47.94;99439.66;12199412;19;20039;-82
2023/04/20 14:36:23;;;;;;;4.97;3.17;;;;;;;12.74;48.01;99437.41;12178799;19;20034;-82
2023/04/20 14:40:25;;;;;;;5.28;3.30;;;;;;;12.60;48.05;99427.97;12202340;19;20030;-82
2023/04/20 14:44:26;;;;;;;5.80;3.05;;;;;;;12.50;48.24;99439.84;12207646;19;20011;-81
2023/04/20 14:48:28;;;;;;;6.78;3.20;;;;;;;12.47;47.94;99447.84;12179732;19;20039;-82
2023/04/20 14:52:31;;;;;;;6.22;3.20;;;;;;;12.42;48.42;99439.53;12201033;19;20007;-80
2023/04/20 14:56:33;;;;;;;5.22;2.75;;;;;;;12.47;47.09;99443.16;12223518;19;19999;-80
2023/04/20 15:00:34;;;;;;;5.07;3.10;;;;;;;12.44;46.78;99442.88;12255790;19;20096;-80
2023/04/20 15:04:36;;;;;;;5.07;2.60;;;;;;;12.31;46.84;99433.97;12251393;19;20003;-79
2023/04/20 15:08:38;;;;;;;4.90;2.53;;;;;;;12.15;47.31;99432.25;12225591;19;20020;-79
2023/04/20 15:12:40;;;;;;;5.35;2.40;;;;;;;12.12;47.83;99441.06;12248866;19;20697;-79
2023/04/20 15:16:41;;;;;;;6.07;2.92;;;;;;;12.06;47.55;99431.09;12255228;19;20029;-78
2023/04/20 15:20:44;;;;;;;6.28;3.33;;;;;;;12.02;48.12;99430.00;12230544;19;20006;-79
2023/04/20 15:24:46;;;;;;;5.07;2.75;;;;;;;11.92;47.66;99430.75;12229117;19;20014;-80
2023/04/20 15:28:48;;;;;;;5.05;3.08;;;;;;;11.80;48.84;99422.63;12214383;19;20011;-80
2023/04/20 15:32:50;;;;;;;7.40;3.08;;;;;;;11.84;49.39;99414.69;12193561;19;20031;-79
2023/04/20 15:36:52;;;;;;;4.80;3.10;;;;;;;11.92;49.28;99411.41;12214868;19;20070;-80
2023/04/20 15:40:54;;;;;;;4.60;2.80;;;;;;;12.01;49.40;99420.84;12217221;19;20006;-81
2023/04/20 15:44:56;;;;;;;5.15;3.08;;;;;;;11.97;48.93;99433.53;12203520;19;20011;-79
2023/04/20 15:49:09;;;;;;;6.80;2.88;;;;;;;12.00;49.38;99424.72;12270040;19;19999;-79
2023/04/20 15:53:11;;;;;;;7.38;3.42;;;;;;;11.98;49.74;99426.09;12262485;19;20083;-80
2023/04/20 15:57:12;;;;;;;7.35;3.85;;;;;;;11.83;50.74;99441.44;12204268;19;20042;-80
2023/04/20 16:01:16;;;;;;;8.18;3.97;;;;;;;11.73;51.74;99457.13;12207217;19;20003;-80
2023/04/20 16:05:18;;;;;;;5.38;3.50;;;;;;;11.58;52.84;99455.09;12202744;19;20609;-80
2023/04/20 16:09:24;;;;;;;5.93;3.83;;;;;;;11.51;54.42;99462.75;12180334;19;20035;-80
2023/04/20 16:13:26;;;;;;;6.78;4.20;;;;;;;11.37;55.73;99465.13;12259195;19;20027;-79
2023/04/20 16:17:28;;;;;;;6.57;3.88;;;;;;;11.22;56.68;99476.88;12262002;19;20031;-80
2023/04/20 16:21:31;;;;;;;5.85;4.15;;;;;;;11.13;57.14;99472.94;12240650;19;20006;-80
2023/04/20 16:25:33;;;;;;;6.90;4.30;;;;;;;11.07;57.38;99474.81;12228039;19;20010;-81
2023/04/20 16:29:35;;;;;;;6.93;4.53;;;;;;;11.01;59.29;99467.56;12194128;19;20113;-81
2023/04/20 16:33:37;;;;;;;8.68;4.35;;;;;;;10.98;59.41;99465.34;12205991;19;20030;-81
2023/04/20 16:37:39;;;;;;;8.43;4.10;;;;;;;10.89;61.27;99451.19;12209147;19;20411;-81
2023/04/20 16:41:42;;;;;;;7.75;4.57;;;;;;;10.86;62.03;99450.91;12186487;19;20059;-81
2023/04/20 16:45:44;;;;;;;7.60;4.65;;;;;;;10.85;61.57;99463.81;12210029;19;20010;-81
2023/04/20 16:49:46;;;;;;;6.75;4.22;;;;;;;10.85;61.77;99460.22;12222890;19;20003;-79
2023/04/20 16:53:47;;;;;;;7.88;4.13;;;;;;;10.79;61.88;99448.31;12235671;19;20368;-80
2023/04/20 16:57:50;;;;;;;9.70;4.70;;;;;;;10.75;62.26;99460.13;12235588;19;20002;-81
2023/04/20 17:01:52;;;;;;;7.67;4.23;;;;;;;10.71;62.78;99459.84;12212244;19;20014;-82
2023/04/20 17:05:56;;;;;;;6.78;4.45;;;;;;;10.63;63.80;99463.88;12183981;19;20010;-81
2023/04/20 17:09:58;;;;;;;7.28;4.32;;;;;;;10.60;65.39;99464.38;12209512;19;20094;-82
2023/04/20 17:14:01;;;;;;;6.95;4.15;;;;;;;10.57;65.32;99453.06;12208251;19;20013;-81
2023/04/20 17:18:03;;;;;;;11.95;4.93;;;;;;;10.54;66.02;99464.59;12189877;19;20579;-81
2023/04/20 17:22:07;;;;;;;7.77;5.57;;;;;;;10.48;66.56;99463.69;12201573;19;20037;-80
2023/04/20 17:26:08;;;;;;;8.95;5.75;;;;;;;10.42;67.98;99467.50;12201547;19;20054;-81
2023/04/20 17:30:10;;;;;;;8.32;5.38;;;;;;;10.36;68.15;99447.31;12186414;19;20547;-81
2023/04/20 17:34:12;;;;;;;9.10;5.37;;;;;;;10.25;70.34;99462.84;12205537;19;20014;-82
2023/04/20 17:38:14;;;;;;;8.70;5.10;;;;;;;10.20;70.80;99459.19;12201673;19;20066;-81
2023/04/20 17:42:16;;;;;;;8.23;4.53;;;;;;;10.03;73.41;99465.59;12180866;19;20039;-81
2023/04/20 17:46:18;;;;;;;10.80;5.90;;;;;;;9.94;72.88;99466.28;12202831;19;20010;-80
2023/04/20 17:50:21;;;;;;;7.28;4.97;;;;;;;9.80;75.45;99476.81;12202007;19;20047;-81
2023/04/20 17:54:24;;;;;;;7.70;4.72;;;;;;;9.75;77.16;99487.75;12180214;19;20046;-81
2023/04/20 17:58:26;;;;;;;8.13;5.95;;;;;;;9.70;76.86;99494.03;12205418;19;20014;-81
2023/04/20 18:02:27;;;;;;;8.68;5.40;;;;;;;9.64;77.20;99497.78;12198706;19;20014;-81
2023/04/20 18:06:32;;;;;;;9.75;6.03;;;;;;;9.58;81.19;99502.38;12173896;19;20014;-81
2023/04/20 18:10:33;;;;;;;9.38;6.10;;;;;;;9.47;81.99;99500.53;12197450;19;20008;-82
2023/04/20 18:14:36;;;;;;;11.30;6.47;;;;;;;9.34;85.69;99523.69;12174502;19;20010;-82
2023/04/20 18:18:38;;;;;;;15.95;7.05;;;;;;;9.21;89.04;99523.19;12203152;19;20468;-82
2023/04/20 18:22:39;;;;;;;9.50;6.25;;;;;;;9.01;92.84;99523.63;12207298;19;20634;-83
2023/04/20 18:26:41;;;;;;;10.98;7.00;;;;;;;8.87;94.22;99520.38;12186185;19;20415;-82
2023/04/20 18:30:43;;;;;;;12.18;7.53;;;;;;;8.72;96.70;99514.59;12206352;19;20026;-81
2023/04/20 18:34:45;;;;;;;15.38;7.60;;;;;;;8.59;99.66;99515.69;12202152;19;20664;-80
2023/04/20 18:38:50;;;;;;;12.13;7.55;;;;;;;8.50;100.00;99517.97;12178023;19;20007;-79
2023/04/20 18:42:52;;;;;;;13.95;8.02;;;;;;;8.46;100.00;99515.97;12200647;19;20022;-79
2023/04/20 18:46:55;;;;;;;16.58;8.88;;;;;;;8.34;100.00;99516.81;12205566;19;20030;-80
2023/04/20 18:51:00;;;;;;;15.20;8.63;;;;;;;8.29;100.00;99529.59;12183386;19;20038;-80
2023/04/20 18:55:02;;;;;;;13.77;8.95;;;;;;;8.20;100.00;99508.00;12205058;19;20034;-81
2023/04/20 18:59:05;;;;;;;14.23;8.52;;;;;;;8.08;100.00;99504.44;12209384;19;20358;-80